Página principal
METAR-TAF:

METAR-TAF

Aeroportos :

Point Lay, Alasca, Estados Unidos

latitude: 69-43N, longitude: 163-00W, altura: 8 m

Observação actual do tempo

O boletim foi feito há 18 minutos, às 05:56 UTC
Vento 7 kt de sudoeste
Temperatura 2°C
Humidade 93%
Pressão 1023 hPa
Visibilidade: 16.1 km
Poucas nuvensa uma altura de 3300 ft
Nuvens fragmentadasa uma altura de 5500 ft
Encobertoa uma altura de 7000 ft

METAR: PPIZ 140556Z AUTO 22007KT 10SM FEW033 BKN055 OVC070 02/01 A3020 RMK AO2 SLP228 T00220006 10028 20017 51006 FZRANO

Hora: 22:14 (06:14 UTC)


TAF: em falta

Observações e previsões do tempo de mais de 4000 aeroportos (mensagens METAR e TAF).

As estações disponíveis são os pontos amarelos e vermelhos sobre o mapa.

Mova o rato sobre o mapa para ver o nome da estação.

Depois clique no ponto para visualizar as observações e previsões meteorológicas.

Para alterar o mapa : clique nos botões verdes com uma cruz preta para aumentar o zoom; no botão verde com uma pitada de zoom; ou nas setas verdes para mapas adjacentes.


METAR-TAF: